Time;durP1;ratioP1;P1;durP2;ratioP2;P2;SDS_P1;SDS_P2;PMS_P1;PMS_P2;Temp;Humidity;BMP_temperature;BMP_pressure;BME280_temperature;BME280_humidity;BME280_pressure;Samples;Min_cycle;Max_cycle;Signal;HPM_P1;HPM_P2
2022/04/07 00:00:21;;;;;;;;;;;;;;;22.83;35.61;94276.06;2024585;29;1661;-70
2022/04/07 00:01:23;;;;;;;;;;;;;;;22.83;35.56;94284.09;2024199;29;1903;-69
2022/04/07 00:02:25;;;;;;;;;;;;;;;22.85;35.12;94282.00;2025015;29;1105;-69
2022/04/07 00:03:26;;;;;;;;;;;;;;;22.85;35.42;94275.81;2025861;29;1109;-70
2022/04/07 00:04:29;;;;;;;;;;;;;;;22.85;35.38;94276.66;2024831;29;1541;-69
2022/04/07 00:05:31;;;;;;;;;;;;;;;22.84;35.39;94269.66;2025781;29;1208;-69
2022/04/07 00:06:32;;;;;;;;;;;;;;;22.85;35.46;94265.94;2021299;29;1483;-69
2022/04/07 00:07:34;;;;;;;;;;;;;;;22.87;35.11;94265.69;2024942;29;1116;-69
2022/04/07 00:08:36;;;;;;;;;;;;;;;22.86;35.44;94264.06;2025855;29;1251;-69
2022/04/07 00:09:38;;;;;;;;;;;;;;;22.83;35.21;94257.31;2024584;29;1541;-66
2022/04/07 00:10:39;;;;;;;;;;;;;;;22.79;35.07;94264.22;2025696;29;1270;-66
2022/04/07 00:11:41;;;;;;;;;;;;;;;22.75;35.37;94260.41;2024850;29;1460;-66
2022/04/07 00:12:43;;;;;;;;;;;;;;;22.72;35.38;94255.53;2025064;29;1476;-66
2022/04/07 00:13:44;;;;;;;;;;;;;;;22.70;35.67;94255.78;2024622;29;1333;-66
2022/04/07 00:14:46;;;;;;;;;;;;;;;22.67;35.63;94247.38;2023707;29;1483;-67
2022/04/07 00:15:47;;;;;;;;;;;;;;;22.65;35.86;94250.31;2025392;29;957;-67
2022/04/07 00:16:49;;;;;;;;;;;;;;;22.63;35.69;94246.25;2032325;29;1511;-67
2022/04/07 00:17:51;;;;;;;;;;;;;;;22.63;35.62;94252.44;2020665;29;1144;-66
2022/04/07 00:18:52;;;;;;;;;;;;;;;22.61;35.91;94253.72;2023117;29;1477;-66
2022/04/07 00:19:54;;;;;;;;;;;;;;;22.62;35.68;94249.97;2024744;29;1484;-67
2022/04/07 00:20:56;;;;;;;;;;;;;;;22.61;35.31;94251.84;2024159;29;1917;-67
2022/04/07 00:21:59;;;;;;;;;;;;;;;22.61;35.87;94251.03;2031093;29;1544;-67
2022/04/07 00:23:01;;;;;;;;;;;;;;;22.62;35.83;94255.34;2030461;29;1493;-67
2022/04/07 00:24:03;;;;;;;;;;;;;;;22.62;35.48;94255.34;2025458;29;980;-67
2022/04/07 00:25:05;;;;;;;;;;;;;;;22.60;35.89;94246.75;2023986;29;1573;-67
2022/04/07 00:26:06;;;;;;;;;;;;;;;22.61;35.59;94248.38;2024045;29;1626;-67
2022/04/07 00:27:08;;;;;;;;;;;;;;;22.60;35.93;94242.22;2025698;29;1025;-67
2022/04/07 00:28:10;;;;;;;;;;;;;;;22.60;35.96;94238.72;2025681;29;1023;-67
2022/04/07 00:29:11;;;;;;;;;;;;;;;22.58;35.84;94236.28;2019283;29;1499;-66
2022/04/07 00:30:13;;;;;;;;;;;;;;;22.58;36.03;94242.44;2016439;29;1496;-66
2022/04/07 00:31:14;;;;;;;;;;;;;;;22.58;35.53;94226.38;2024708;29;1095;-66
2022/04/07 00:32:16;;;;;;;;;;;;;;;22.58;35.82;94234.41;2025364;29;1488;-66
2022/04/07 00:33:18;;;;;;;;;;;;;;;22.58;35.20;94230.91;2025041;29;1680;-67
2022/04/07 00:34:19;;;;;;;;;;;;;;;22.57;36.09;94230.09;2025705;29;1041;-67
2022/04/07 00:35:24;;;;;;;;;;;;;;;22.58;35.80;94223.69;2024403;29;1667;-67
2022/04/07 00:36:26;;;;;;;;;;;;;;;22.58;35.94;94217.53;2024638;29;1503;-67
2022/04/07 00:37:28;;;;;;;;;;;;;;;22.57;35.90;94222.06;2024402;29;1465;-67
2022/04/07 00:38:30;;;;;;;;;;;;;;;22.58;36.10;94221.00;2025367;29;1189;-67
2022/04/07 00:39:31;;;;;;;;;;;;;;;22.60;35.83;94225.34;2024800;29;1522;-69
2022/04/07 00:40:33;;;;;;;;;;;;;;;22.68;35.51;94216.88;2021900;29;1137;-69
2022/04/07 00:41:37;;;;;;;;;;;;;;;22.72;35.82;94220.72;2023753;29;1903;-68
2022/04/07 00:42:46;;;;;;;;;;;;;;;22.73;35.67;94219.66;2024793;29;1132;-68
2022/04/07 00:43:53;;;;;;;;;;;;;;;22.75;35.82;94221.03;2025549;29;1780;-68
2022/04/07 00:44:55;;;;;;;;;;;;;;;22.76;35.68;94229.88;2025158;29;1490;-68
2022/04/07 00:45:57;;;;;;;;;;;;;;;22.73;35.63;94225.81;2021655;29;1704;-69
2022/04/07 00:46:59;;;;;;;;;;;;;;;22.76;35.81;94225.38;2024669;29;1513;-69
2022/04/07 00:48:00;;;;;;;;;;;;;;;22.79;35.50;94224.88;2031949;29;1511;-68
2022/04/07 00:49:02;;;;;;;;;;;;;;;22.77;35.59;94226.97;2032273;29;1101;-69
2022/04/07 00:50:04;;;;;;;;;;;;;;;22.80;35.69;94228.34;2023978;29;1523;-68
2022/04/07 00:51:06;;;;;;;;;;;;;;;22.81;35.31;94223.81;2024996;29;1118;-69
2022/04/07 00:52:08;;;;;;;;;;;;;;;22.82;35.38;94215.50;2019942;29;1675;-69
2022/04/07 00:53:09;;;;;;;;;;;;;;;22.84;35.38;94210.72;2016400;29;1740;-68
2022/04/07 00:54:12;;;;;;;;;;;;;;;22.82;35.66;94204.78;2024267;29;1524;-69
2022/04/07 00:55:15;;;;;;;;;;;;;;;22.82;35.72;94201.31;2032568;29;1284;-68
2022/04/07 00:56:17;;;;;;;;;;;;;;;22.82;35.53;94212.84;2032170;29;1105;-69
2022/04/07 00:57:19;;;;;;;;;;;;;;;22.83;35.68;94198.41;2024901;29;1040;-68
2022/04/07 00:58:22;;;;;;;;;;;;;;;22.83;35.44;94201.09;2024905;29;955;-68
2022/04/07 00:59:24;;;;;;;;;;;;;;;22.84;35.37;94200.00;2024903;29;1510;-69
2022/04/07 01:00:26;;;;;;;;;;;;;;;22.84;35.25;94199.22;2024028;29;1554;-68
2022/04/07 01:01:28;;;;;;;;;;;;;;;22.84;35.32;94194.66;2023624;29;1911;-69
2022/04/07 01:02:30;;;;;;;;;;;;;;;22.84;35.32;94197.34;2024956;29;1449;-69
2022/04/07 01:03:32;;;;;;;;;;;;;;;22.85;35.45;94203.50;2030209;29;1652;-68
2022/04/07 01:04:33;;;;;;;;;;;;;;;22.82;35.56;94196.75;2037921;29;1623;-69
2022/04/07 01:05:35;;;;;;;;;;;;;;;22.84;35.47;94196.53;2031163;29;1571;-69
2022/04/07 01:06:36;;;;;;;;;;;;;;;22.85;35.56;94201.66;2031926;29;1108;-68
2022/04/07 01:07:39;;;;;;;;;;;;;;;22.85;35.44;94201.66;2024998;29;1473;-68
2022/04/07 01:08:41;;;;;;;;;;;;;;;22.83;35.63;94198.41;2032542;29;1109;-68
2022/04/07 01:09:43;;;;;;;;;;;;;;;22.85;35.48;94201.66;2032139;29;1101;-68
2022/04/07 01:10:45;;;;;;;;;;;;;;;22.85;35.20;94198.97;2024559;29;1465;-68
2022/04/07 01:11:47;;;;;;;;;;;;;;;22.86;35.29;94194.44;2027554;29;1486;-68
2022/04/07 01:12:49;;;;;;;;;;;;;;;22.86;35.37;94186.38;2032297;29;1156;-68
2022/04/07 01:13:51;;;;;;;;;;;;;;;22.87;35.25;94185.31;2024240;29;1493;-68
2022/04/07 01:14:54;;;;;;;;;;;;;;;22.86;35.57;94181.84;2020646;29;1196;-67
2022/04/07 01:15:57;;;;;;;;;;;;;;;22.87;35.34;94177.28;2024295;29;1645;-68
2022/04/07 01:16:59;;;;;;;;;;;;;;;22.87;35.38;94180.78;2025389;29;1037;-69
2022/04/07 01:18:00;;;;;;;;;;;;;;;22.87;35.42;94171.94;2024575;29;1551;-69
2022/04/07 01:19:02;;;;;;;;;;;;;;;22.86;35.64;94159.59;2025225;29;1729;-69
2022/04/07 01:20:05;;;;;;;;;;;;;;;22.86;35.80;94160.41;2025643;29;1668;-68
2022/04/07 01:21:08;;;;;;;;;;;;;;;22.86;34.86;94148.88;2031077;29;1504;-69
2022/04/07 01:22:10;;;;;;;;;;;;;;;22.87;35.53;94151.31;2030430;29;1910;-68
2022/04/07 01:23:12;;;;;;;;;;;;;;;22.87;35.50;94151.31;2021857;29;1528;-68
2022/04/07 01:24:14;;;;;;;;;;;;;;;22.87;35.65;94145.16;2025157;29;1517;-68
2022/04/07 01:25:16;;;;;;;;;;;;;;;22.87;35.57;94145.94;2024678;29;1475;-69
2022/04/07 01:26:18;;;;;;;;;;;;;;;22.88;35.75;94144.91;2020642;29;1160;-68
2022/04/07 01:27:19;;;;;;;;;;;;;;;22.87;35.73;94145.94;2031678;29;1503;-68
2022/04/07 01:28:21;;;;;;;;;;;;;;;22.88;35.66;94147.59;2032061;29;1012;-68
2022/04/07 01:29:25;;;;;;;;;;;;;;;22.85;35.63;94142.72;2032250;29;1048;-69
2022/04/07 01:30:27;;;;;;;;;;;;;;;22.83;35.94;94146.72;2031651;29;1172;-69
2022/04/07 01:31:28;;;;;;;;;;;;;;;22.78;35.83;94158.16;2023313;29;1579;-68
2022/04/07 01:32:41;;;;;;;;;;;;;;;22.73;35.68;94150.84;2023590;29;1539;-69
2022/04/07 01:33:43;;;;;;;;;;;;;;;22.73;35.86;94153.50;2025130;29;1670;-69
2022/04/07 01:34:45;;;;;;;;;;;;;;;22.71;36.19;94142.25;2024674;29;1488;-68
2022/04/07 01:35:47;;;;;;;;;;;;;;;22.71;36.38;94146.81;2031859;29;1101;-68
2022/04/07 01:36:51;;;;;;;;;;;;;;;22.69;36.24;94128.28;2031840;29;1465;-68
2022/04/07 01:37:53;;;;;;;;;;;;;;;22.66;36.30;94123.41;2027368;29;1316;-68
2022/04/07 01:38:58;;;;;;;;;;;;;;;22.67;36.16;94122.34;2031325;29;1522;-67
2022/04/07 01:40:00;;;;;;;;;;;;;;;22.67;36.20;94113.50;2016788;29;1157;-66
2022/04/07 01:41:02;;;;;;;;;;;;;;;22.67;36.07;94118.84;2021710;29;1531;-67
2022/04/07 01:42:04;;;;;;;;;;;;;;;22.67;36.55;94114.31;2024257;29;1903;-67
2022/04/07 01:43:07;;;;;;;;;;;;;;;22.67;36.49;94116.19;2024667;29;1141;-67
2022/04/07 01:44:09;;;;;;;;;;;;;;;22.67;36.28;94117.00;2024976;29;1237;-67
2022/04/07 01:45:12;;;;;;;;;;;;;;;22.66;36.11;94106.53;2024933;29;1041;-67
2022/04/07 01:46:13;;;;;;;;;;;;;;;22.65;36.44;94102.22;2024361;29;1534;-66
2022/04/07 01:47:19;;;;;;;;;;;;;;;22.65;36.53;94102.22;2025232;29;1288;-67
2022/04/07 01:48:21;;;;;;;;;;;;;;;22.64;36.50;94103.28;2025006;29;1736;-67
2022/04/07 01:49:23;;;;;;;;;;;;;;;22.64;36.26;94095.25;2020785;29;1662;-67
2022/04/07 01:50:25;;;;;;;;;;;;;;;22.65;36.27;94103.06;2024434;29;1494;-67
2022/04/07 01:51:28;;;;;;;;;;;;;;;22.64;36.63;94104.09;2024106;29;1641;-67
2022/04/07 01:52:30;;;;;;;;;;;;;;;22.65;36.60;94107.56;2024655;29;1895;-67
2022/04/07 01:53:34;;;;;;;;;;;;;;;22.64;36.66;94097.94;2025018;29;1089;-67
2022/04/07 01:54:36;;;;;;;;;;;;;;;22.63;36.60;94097.13;2024650;29;1511;-67
2022/04/07 01:55:38;;;;;;;;;;;;;;;22.64;36.33;94095.25;2024378;29;1507;-67
2022/04/07 01:56:41;;;;;;;;;;;;;;;22.64;36.34;94085.34;2023370;29;1576;-67
2022/04/07 01:57:43;;;;;;;;;;;;;;;22.65;36.26;94080.81;2024255;29;1740;-67
2022/04/07 01:58:45;;;;;;;;;;;;;;;22.64;36.69;94084.53;2025126;29;1139;-67
2022/04/07 01:59:46;;;;;;;;;;;;;;;22.63;36.24;94086.41;2023323;29;1002;-66
2022/04/07 02:00:48;;;;;;;;;;;;;;;22.62;36.67;94079.44;2028721;29;1463;-67
2022/04/07 02:01:50;;;;;;;;;;;;;;;22.63;36.64;94080.25;2030542;29;1981;-67
2022/04/07 02:02:51;;;;;;;;;;;;;;;22.63;36.46;94080.25;2025072;29;1559;-67
2022/04/07 02:03:53;;;;;;;;;;;;;;;22.64;36.17;94084.53;2025185;29;1049;-67
2022/04/07 02:04:56;;;;;;;;;;;;;;;22.63;36.46;94085.63;2025053;29;999;-67
2022/04/07 02:06:14;;;;;;;;;;;;;;;22.62;36.41;94083.97;2024085;29;1168;-67
2022/04/07 02:07:15;;;;;;;;;;;;;;;22.62;36.71;94081.28;2024537;29;1004;-67
2022/04/07 02:08:17;;;;;;;;;;;;;;;22.62;36.47;94078.63;2025040;29;1105;-67
2022/04/07 02:09:18;;;;;;;;;;;;;;;22.62;36.68;94062.56;2030712;29;1515;-67
2022/04/07 02:10:21;;;;;;;;;;;;;;;22.63;36.51;94064.19;2030898;29;1500;-68
2022/04/07 02:11:22;;;;;;;;;;;;;;;22.64;36.75;94068.47;2019760;29;1476;-68
2022/04/07 02:12:27;;;;;;;;;;;;;;;22.64;36.48;94066.59;2024101;29;1625;-68
2022/04/07 02:13:30;;;;;;;;;;;;;;;22.63;36.46;94065.00;2023764;29;1709;-67
2022/04/07 02:14:33;;;;;;;;;;;;;;;22.63;36.48;94061.53;2024328;29;1476;-67
2022/04/07 02:15:35;;;;;;;;;;;;;;;22.64;36.63;94060.44;2025204;29;988;-67
2022/04/07 02:16:37;;;;;;;;;;;;;;;22.64;36.17;94071.16;2024329;29;1543;-67
2022/04/07 02:17:39;;;;;;;;;;;;;;;22.65;36.69;94067.41;2024485;29;994;-67
2022/04/07 02:18:40;;;;;;;;;;;;;;;22.64;36.13;94071.16;2016655;29;1736;-67
2022/04/07 02:19:42;;;;;;;;;;;;;;;22.64;36.08;94068.47;2023788;29;1523;-66
2022/04/07 02:20:44;;;;;;;;;;;;;;;22.65;36.38;94067.41;2024528;29;1180;-66
2022/04/07 02:21:46;;;;;;;;;;;;;;;22.65;36.45;94067.41;2024299;29;1557;-66
2022/04/07 02:22:48;;;;;;;;;;;;;;;22.63;36.25;94065.00;2019580;29;1974;-67
2022/04/07 02:23:51;;;;;;;;;;;;;;;22.64;36.67;94052.41;2025935;29;1040;-67
2022/04/07 02:24:53;;;;;;;;;;;;;;;22.63;36.48;94053.50;2017903;29;1562;-67
2022/04/07 02:25:55;;;;;;;;;;;;;;;22.63;36.60;94048.94;2018303;29;1033;-67
2022/04/07 02:26:56;;;;;;;;;;;;;;;22.62;36.78;94051.84;2017485;29;1617;-68
2022/04/07 02:27:58;;;;;;;;;;;;;;;22.62;36.88;94044.63;2025444;29;1056;-68
2022/04/07 02:29:00;;;;;;;;;;;;;;;22.64;36.75;94049.75;2025308;29;1517;-69
2022/04/07 02:30:02;;;;;;;;;;;;;;;22.63;36.64;94048.13;2026009;29;1397;-69
2022/04/07 02:31:04;;;;;;;;;;;;;;;22.64;37.06;94050.53;2026467;29;1015;-68
2022/04/07 02:32:06;;;;;;;;;;;;;;;22.64;36.69;94044.38;2025684;29;1529;-67
2022/04/07 02:33:07;;;;;;;;;;;;;;;22.62;36.70;94047.28;2033538;29;1009;-67
2022/04/07 02:34:09;;;;;;;;;;;;;;;22.64;36.99;94049.75;2028159;29;1536;-67
2022/04/07 02:35:12;;;;;;;;;;;;;;;22.63;36.99;94053.50;2032696;29;1453;-66
2022/04/07 02:36:17;;;;;;;;;;;;;;;22.63;37.03;94058.84;2032678;29;1524;-67
2022/04/07 02:37:20;;;;;;;;;;;;;;;22.63;37.25;94048.13;2026296;29;998;-68
2022/04/07 02:38:21;;;;;;;;;;;;;;;22.63;36.93;94042.78;2026536;29;1195;-67
2022/04/07 02:39:23;;;;;;;;;;;;;;;22.64;37.35;94055.09;2025693;29;1804;-68
2022/04/07 02:40:24;;;;;;;;;;;;;;;22.63;37.10;94056.97;2026312;29;1120;-67
2022/04/07 02:41:26;;;;;;;;;;;;;;;22.63;37.07;94058.84;2026013;29;1509;-68
2022/04/07 02:42:28;;;;;;;;;;;;;;;22.64;36.97;94058.56;2023689;29;1935;-68
2022/04/07 02:43:29;;;;;;;;;;;;;;;22.64;37.01;94049.75;2023938;29;1500;-68
2022/04/07 02:44:31;;;;;;;;;;;;;;;22.64;37.15;94041.72;2032869;29;1447;-68
2022/04/07 02:45:33;;;;;;;;;;;;;;;22.63;36.82;94035.56;2021268;29;1568;-68
2022/04/07 02:46:35;;;;;;;;;;;;;;;22.64;37.38;94028.31;2025780;29;1629;-68
2022/04/07 02:47:40;;;;;;;;;;;;;;;22.63;36.99;94027.53;2025530;29;1540;-68
2022/04/07 02:48:41;;;;;;;;;;;;;;;22.64;36.83;94022.97;2025903;29;1234;-68
2022/04/07 02:49:43;;;;;;;;;;;;;;;22.65;37.13;94019.22;2024544;29;1485;-67
2022/04/07 02:50:45;;;;;;;;;;;;;;;22.63;37.07;94022.16;2026327;29;1168;-66
2022/04/07 02:51:46;;;;;;;;;;;;;;;22.64;37.04;94025.66;2024886;29;1814;-66
2022/04/07 02:52:48;;;;;;;;;;;;;;;22.64;36.85;94034.47;2025499;29;1078;-66
2022/04/07 02:53:57;;;;;;;;;;;;;;;22.64;36.94;94028.31;2025686;29;1076;-66
2022/04/07 02:54:58;;;;;;;;;;;;;;;22.64;37.11;94034.47;2024670;29;977;-68
2022/04/07 02:56:00;;;;;;;;;;;;;;;22.65;36.66;94035.28;2010425;29;1116;-66
2022/04/07 02:57:03;;;;;;;;;;;;;;;22.64;37.25;94042.50;2005598;29;1076;-66
2022/04/07 02:58:04;;;;;;;;;;;;;;;22.66;36.93;94026.22;2022831;29;1761;-66
2022/04/07 02:59:06;;;;;;;;;;;;;;;22.65;36.75;94022.72;2025430;29;1583;-66
2022/04/07 03:00:08;;;;;;;;;;;;;;;22.64;37.01;94015.75;2025396;29;1423;-66
2022/04/07 03:01:14;;;;;;;;;;;;;;;22.65;37.00;94013.88;2025874;29;1137;-66
2022/04/07 03:02:16;;;;;;;;;;;;;;;22.64;37.26;94014.94;2032139;29;1586;-69
2022/04/07 03:03:17;;;;;;;;;;;;;;;22.64;37.36;94004.22;2032667;29;1931;-69
2022/04/07 03:04:21;;;;;;;;;;;;;;;22.62;34.24;93999.09;2023815;29;1618;-67
2022/04/07 03:05:23;;;;;;;;;;;;;;;21.53;28.06;93997.78;2032251;29;1574;-67
2022/04/07 03:06:25;;;;;;;;;;;;;;;20.62;28.40;94007.56;2033233;29;1518;-65
2022/04/07 03:07:26;;;;;;;;;;;;;;;20.00;29.31;94008.09;2025667;29;1477;-65
2022/04/07 03:08:28;;;;;;;;;;;;;;;19.56;28.92;94002.28;2021708;29;1107;-65
2022/04/07 03:09:30;;;;;;;;;;;;;;;19.10;29.22;93993.13;2025659;29;1589;-66
2022/04/07 03:10:31;;;;;;;;;;;;;;;18.96;28.77;93984.50;2026100;29;1288;-65
2022/04/07 03:11:33;;;;;;;;;;;;;;;18.82;29.22;93975.88;2026260;29;1023;-65
2022/04/07 03:12:35;;;;;;;;;;;;;;;18.59;29.54;93971.25;2025081;29;1438;-66
2022/04/07 03:13:36;;;;;;;;;;;;;;;18.49;29.66;93957.66;2025798;29;1253;-65
2022/04/07 03:14:38;;;;;;;;;;;;;;;18.43;29.58;93961.22;2031405;29;1546;-65
2022/04/07 03:15:40;;;;;;;;;;;;;;;18.30;29.57;93970.97;2032725;29;1164;-65
2022/04/07 03:16:41;;;;;;;;;;;;;;;18.27;29.68;93978.59;2024505;29;1467;-65
2022/04/07 03:17:43;;;;;;;;;;;;;;;18.08;29.62;93975.94;2024872;29;1689;-65
2022/04/07 03:18:45;;;;;;;;;;;;;;;17.97;29.82;93973.19;2025992;29;1021;-65
2022/04/07 03:19:46;;;;;;;;;;;;;;;17.83;29.80;93969.84;2020448;29;1234;-65
2022/04/07 03:20:48;;;;;;;;;;;;;;;17.65;29.90;93968.75;2018011;29;870;-65
2022/04/07 03:21:49;;;;;;;;;;;;;;;17.70;30.05;93969.94;2024067;29;1465;-65
2022/04/07 03:22:51;;;;;;;;;;;;;;;17.60;29.98;93973.09;2026466;29;1930;-66
2022/04/07 03:23:53;;;;;;;;;;;;;;;17.56;29.70;93975.38;2032043;29;1668;-65
2022/04/07 03:24:55;;;;;;;;;;;;;;;17.39;29.93;93985.75;2025168;29;1619;-65
2022/04/07 03:25:56;;;;;;;;;;;;;;;17.16;30.42;93981.00;2025156;29;1602;-65
2022/04/07 03:26:58;;;;;;;;;;;;;;;17.24;30.35;93992.38;2025304;29;1656;-65
2022/04/07 03:27:59;;;;;;;;;;;;;;;17.40;30.22;93991.84;2024916;29;1754;-65
2022/04/07 03:29:01;;;;;;;;;;;;;;;17.45;29.83;93988.56;2025376;29;1012;-65
2022/04/07 03:30:03;;;;;;;;;;;;;;;17.47;30.13;93986.47;2024629;29;1684;-65
2022/04/07 03:31:05;;;;;;;;;;;;;;;17.48;30.04;93996.09;2020465;29;1563;-65
2022/04/07 03:32:07;;;;;;;;;;;;;;;17.47;30.11;93984.66;2024496;29;1447;-65
2022/04/07 03:33:08;;;;;;;;;;;;;;;17.37;30.09;93984.34;2032034;29;1571;-65
2022/04/07 03:34:10;;;;;;;;;;;;;;;17.30;30.09;93978.25;2026022;29;1469;-65
2022/04/07 03:35:12;;;;;;;;;;;;;;;17.24;30.20;93979.91;2025142;29;1737;-65
2022/04/07 03:36:13;;;;;;;;;;;;;;;17.15;30.13;93974.06;2023171;29;1672;-65
2022/04/07 03:37:15;;;;;;;;;;;;;;;17.15;30.17;93970.59;2025507;29;1013;-65
2022/04/07 03:38:16;;;;;;;;;;;;;;;17.09;30.44;93968.81;2025461;29;1639;-64
2022/04/07 03:39:18;;;;;;;;;;;;;;;17.00;30.32;93959.50;2033102;29;1109;-64
2022/04/07 03:40:20;;;;;;;;;;;;;;;16.92;30.54;93952.59;2024974;29;1521;-65
2022/04/07 03:41:21;;;;;;;;;;;;;;;17.02;30.70;93947.63;2032950;29;1011;-65
2022/04/07 03:42:23;;;;;;;;;;;;;;;17.03;30.46;93943.13;2027267;29;1720;-65
2022/04/07 03:43:24;;;;;;;;;;;;;;;16.92;30.61;93934.84;2031985;29;1994;-64
2022/04/07 03:44:26;;;;;;;;;;;;;;;16.89;30.69;93935.25;2018001;29;1041;-65
2022/04/07 03:45:27;;;;;;;;;;;;;;;16.87;30.77;93929.38;2023845;29;1744;-65
2022/04/07 03:46:29;;;;;;;;;;;;;;;16.92;30.91;93928.72;2024571;29;1516;-65
2022/04/07 03:47:31;;;;;;;;;;;;;;;17.04;30.91;93929.63;2032942;29;1045;-66
2022/04/07 03:48:32;;;;;;;;;;;;;;;17.21;30.70;93921.97;2024400;29;1871;-65
2022/04/07 03:49:34;;;;;;;;;;;;;;;17.27;30.69;93929.06;2024180;29;1574;-65
2022/04/07 03:50:35;;;;;;;;;;;;;;;17.37;30.65;93934.69;2025951;29;991;-65
2022/04/07 03:51:37;;;;;;;;;;;;;;;17.39;30.50;93937.13;2034619;29;1684;-65
2022/04/07 03:52:44;;;;;;;;;;;;;;;17.41;30.81;93929.75;2036225;29;1645;-65
2022/04/07 03:53:45;;;;;;;;;;;;;;;17.38;30.65;93931.00;2021358;29;1639;-65
2022/04/07 03:54:47;;;;;;;;;;;;;;;17.41;30.73;93930.59;2025441;29;1726;-65
2022/04/07 03:55:48;;;;;;;;;;;;;;;17.31;30.71;93926.78;2025828;29;979;-65
2022/04/07 03:56:50;;;;;;;;;;;;;;;17.31;30.75;93919.63;2024419;29;1478;-65
2022/04/07 03:57:52;;;;;;;;;;;;;;;17.34;30.61;93918.38;2025868;29;950;-65
2022/04/07 03:58:53;;;;;;;;;;;;;;;17.45;31.16;93919.53;2025041;29;1506;-66
2022/04/07 03:59:55;;;;;;;;;;;;;;;17.87;31.11;93901.97;2025632;29;1607;-63
2022/04/07 04:00:58;;;;;;;;;;;;;;;17.92;30.13;93904.75;2025576;29;1660;-64
2022/04/07 04:01:59;;;;;;;;;;;;;;;17.79;30.62;93902.25;2025715;29;1458;-63
2022/04/07 04:03:01;;;;;;;;;;;;;;;17.70;31.02;93893.75;2025618;29;1990;-65
2022/04/07 04:04:03;;;;;;;;;;;;;;;17.74;31.71;93902.91;2032024;29;1765;-65
2022/04/07 04:05:04;;;;;;;;;;;;;;;17.69;31.87;93894.75;2027176;29;1558;-65
2022/04/07 04:06:06;;;;;;;;;;;;;;;17.66;32.51;93901.31;2025336;29;1555;-66
2022/04/07 04:07:08;;;;;;;;;;;;;;;17.63;33.00;93907.06;2032495;29;1588;-65
2022/04/07 04:08:09;;;;;;;;;;;;;;;17.61;32.99;93908.31;2027654;29;1583;-66
2022/04/07 04:09:11;;;;;;;;;;;;;;;17.86;32.46;93906.44;2023563;29;1497;-66
2022/04/07 04:10:12;;;;;;;;;;;;;;;17.97;32.34;93907.56;2024942;29;1562;-66
2022/04/07 04:11:14;;;;;;;;;;;;;;;18.02;31.99;93897.06;2018612;29;1511;-66
2022/04/07 04:12:15;;;;;;;;;;;;;;;18.07;31.61;93894.56;2024608;29;1476;-66
2022/04/07 04:13:17;;;;;;;;;;;;;;;18.07;31.68;93886.59;2031792;29;1557;-66
2022/04/07 04:14:19;;;;;;;;;;;;;;;18.06;31.84;93887.63;2032044;29;1211;-66
2022/04/07 04:15:20;;;;;;;;;;;;;;;18.13;31.74;93911.47;2026625;29;1681;-66
2022/04/07 04:16:22;;;;;;;;;;;;;;;18.17;31.94;93917.16;2026566;29;1345;-67
2022/04/07 04:17:27;;;;;;;;;;;;;;;18.05;31.42;93923.22;2017379;29;1018;-66
2022/04/07 04:18:29;;;;;;;;;;;;;;;17.63;32.15;93923.00;2024810;29;1690;-66
2022/04/07 04:19:32;;;;;;;;;;;;;;;17.37;32.76;93916.09;2020376;29;1066;-65
2022/04/07 04:20:34;;;;;;;;;;;;;;;17.45;32.54;93912.38;2024817;29;1501;-66
2022/04/07 04:21:36;;;;;;;;;;;;;;;17.45;31.83;93920.34;2017936;29;1174;-66
2022/04/07 04:22:38;;;;;;;;;;;;;;;17.41;32.18;93927.09;2022344;29;1643;-66
2022/04/07 04:23:40;;;;;;;;;;;;;;;17.25;31.86;93903.78;2023377;29;1922;-66
2022/04/07 04:24:42;;;;;;;;;;;;;;;17.35;31.54;93914.69;2025231;29;1097;-66
2022/04/07 04:25:44;;;;;;;;;;;;;;;17.36;31.95;93908.38;2024346;29;1943;-66
2022/04/07 04:26:45;;;;;;;;;;;;;;;17.42;31.96;93912.81;2021748;29;1652;-66
2022/04/07 04:27:47;;;;;;;;;;;;;;;17.39;31.85;93915.91;2024188;29;1105;-65
2022/04/07 04:28:48;;;;;;;;;;;;;;;17.43;31.78;93922.38;2023759;29;1642;-66
2022/04/07 04:29:50;;;;;;;;;;;;;;;17.49;31.70;93926.81;2024926;29;1275;-66
2022/04/07 04:30:51;;;;;;;;;;;;;;;17.55;31.62;93930.44;2018820;29;1631;-66
2022/04/07 04:31:53;;;;;;;;;;;;;;;17.43;31.80;93923.19;2029816;29;1849;-66
2022/04/07 04:32:55;;;;;;;;;;;;;;;17.40;31.70;93930.78;2027493;29;1700;-65
2022/04/07 04:33:56;;;;;;;;;;;;;;;17.30;31.81;93928.63;2022889;29;1543;-66
2022/04/07 04:34:58;;;;;;;;;;;;;;;17.27;31.83;93936.22;2030065;29;1631;-65
2022/04/07 04:36:00;;;;;;;;;;;;;;;17.34;32.01;93934.31;2022603;29;1800;-65
2022/04/07 04:37:02;;;;;;;;;;;;;;;17.43;31.85;93933.81;2023317;29;1666;-65
2022/04/07 04:38:10;;;;;;;;;;;;;;;17.53;32.08;93927.22;2020536;29;1676;-65
2022/04/07 04:39:12;;;;;;;;;;;;;;;17.59;31.66;93924.50;2020471;29;1527;-65
2022/04/07 04:40:14;;;;;;;;;;;;;;;17.53;32.21;93922.72;2017747;29;1567;-67
2022/04/07 04:41:15;;;;;;;;;;;;;;;17.49;33.27;93916.19;2016164;29;1663;-65
2022/04/07 04:42:17;;;;;;;;;;;;;;;17.45;33.22;93901.75;2025744;29;1709;-65
2022/04/07 04:43:19;;;;;;;;;;;;;;;17.51;32.63;93916.00;2023994;29;1585;-65
2022/04/07 04:44:20;;;;;;;;;;;;;;;17.51;32.02;93916.00;2024771;29;1946;-66
2022/04/07 04:45:26;;;;;;;;;;;;;;;17.53;31.98;93919.25;2024937;29;1240;-64
2022/04/07 04:46:28;;;;;;;;;;;;;;;17.44;32.00;93910.72;2031121;29;1687;-65
2022/04/07 04:47:30;;;;;;;;;;;;;;;17.36;32.15;93906.53;2032219;29;1700;-66
2022/04/07 04:48:31;;;;;;;;;;;;;;;17.36;32.43;93905.72;2017500;29;1723;-64
2022/04/07 04:49:33;;;;;;;;;;;;;;;17.27;32.42;93902.53;2017519;29;1105;-64
2022/04/07 04:50:35;;;;;;;;;;;;;;;17.27;32.86;93904.34;2019927;29;1899;-65
2022/04/07 04:51:36;;;;;;;;;;;;;;;17.37;32.42;93910.00;2024761;29;1081;-65
2022/04/07 04:52:38;;;;;;;;;;;;;;;17.39;32.25;93916.72;2020010;29;1013;-65
2022/04/07 04:53:39;;;;;;;;;;;;;;;17.39;32.07;93916.72;2025241;29;1494;-65
2022/04/07 04:54:41;;;;;;;;;;;;;;;17.42;32.35;93926.09;2024830;29;1057;-65
2022/04/07 04:55:43;;;;;;;;;;;;;;;17.62;32.28;93925.91;2024438;29;1033;-65
2022/04/07 04:56:44;;;;;;;;;;;;;;;17.78;32.08;93919.22;2032483;29;1164;-65
2022/04/07 04:57:46;;;;;;;;;;;;;;;17.92;32.03;93920.69;2032161;29;963;-65
2022/04/07 04:58:48;;;;;;;;;;;;;;;18.07;31.68;93918.50;2025419;29;1063;-65
2022/04/07 04:59:49;;;;;;;;;;;;;;;18.17;31.42;93915.28;2025048;29;1467;-65
2022/04/07 05:00:51;;;;;;;;;;;;;;;18.23;31.48;93911.75;2025362;29;1116;-65
2022/04/07 05:01:52;;;;;;;;;;;;;;;18.28;31.30;93909.22;2024706;29;1056;-65
2022/04/07 05:02:54;;;;;;;;;;;;;;;18.25;31.51;93896.38;2024237;29;1077;-65
2022/04/07 05:03:56;;;;;;;;;;;;;;;18.42;31.37;93922.38;2020592;29;1906;-65
2022/04/07 05:04:57;;;;;;;;;;;;;;;18.45;31.14;93924.56;2025193;29;992;-65
2022/04/07 05:05:59;;;;;;;;;;;;;;;18.48;31.09;93932.91;2025138;29;1179;-65
2022/04/07 05:07:00;;;;;;;;;;;;;;;18.49;31.10;93925.72;2025313;29;1072;-65
2022/04/07 05:08:02;;;;;;;;;;;;;;;18.53;31.23;93932.25;2032499;29;1051;-65
2022/04/07 05:09:04;;;;;;;;;;;;;;;18.55;31.18;93927.50;2032307;29;1136;-65
2022/04/07 05:10:06;;;;;;;;;;;;;;;18.57;31.24;93932.59;2025171;29;1113;-64
2022/04/07 05:11:08;;;;;;;;;;;;;;;18.62;31.14;93922.91;2032068;29;1068;-65
2022/04/07 05:12:09;;;;;;;;;;;;;;;18.65;30.93;93938.44;2024737;29;1540;-64
2022/04/07 05:13:11;;;;;;;;;;;;;;;18.69;31.09;93925.50;2024111;29;1368;-65
2022/04/07 05:14:13;;;;;;;;;;;;;;;18.70;31.07;93911.97;2024887;29;1082;-65
2022/04/07 05:15:14;;;;;;;;;;;;;;;18.71;30.93;93921.56;2022083;29;1102;-65
2022/04/07 05:16:16;;;;;;;;;;;;;;;18.72;31.06;93911.75;2032366;29;1120;-65
2022/04/07 05:17:18;;;;;;;;;;;;;;;18.75;30.92;93920.09;2032266;29;1071;-65
2022/04/07 05:18:20;;;;;;;;;;;;;;;18.76;30.99;93926.22;2024293;29;1075;-65
2022/04/07 05:19:21;;;;;;;;;;;;;;;18.79;31.00;93925.78;2025154;29;1160;-66
2022/04/07 05:20:23;;;;;;;;;;;;;;;18.82;31.00;93920.00;2032253;29;1329;-66
2022/04/07 05:21:25;;;;;;;;;;;;;;;18.87;31.03;93914.81;2032273;29;1030;-66
2022/04/07 05:22:26;;;;;;;;;;;;;;;18.87;30.97;93909.50;2025317;29;1116;-66
2022/04/07 05:23:28;;;;;;;;;;;;;;;18.90;30.79;93906.38;2025224;29;1068;-66
2022/04/07 05:24:30;;;;;;;;;;;;;;;18.89;30.90;93906.59;2032426;29;2074;-66
2022/04/07 05:25:31;;;;;;;;;;;;;;;18.89;30.86;93902.06;2019717;29;1731;-66
2022/04/07 05:26:33;;;;;;;;;;;;;;;18.91;30.97;93907.16;2023677;29;1100;-66
2022/04/07 05:27:36;;;;;;;;;;;;;;;18.92;30.94;93909.63;2024838;29;1172;-65